• Join FlightAware (Why Join?)
  • Login
  • US Flag 
10:50PM EDT


 

Airport Tracker/Info


-or-


 

Live Flight TrackerFlight Track Log ✈ KAP5 ✈ 22-Jun-2013 ✈ KALB - KOGS

Flight Track Log - Related Links

Times and Time Zones

All times are in EDT time to prevent confusion due to time zone crossing. See the KAP5 flight status page for this flight to view local times or setup timezone preferences in your user account.

Time Position Orientation Groundspeed Altitude Reporting Facility
EDT Latitude Longitude Course Direction KTS MPH feet Rate Location/Type
10:51AM 42.7153 -73.8078 179° South 111 128 1,600  Level Boston Center
10:52AM 42.7025 -73.8331 235° Southwest 119 137 2,500 840 Climbing Boston Center
10:53AM 42.7292 -73.8589 325° Northwest 126 145 3,400 840 Climbing Boston Center
10:54AM 42.7603 -73.8794 334° Northwest 126 145 4,300 780 Climbing Boston Center
10:55AM 42.7828 -73.8997 327° Northwest 127 146 4,900 600 Climbing Boston Center
10:57AM 42.8261 -73.9347 329° Northwest 140 161 5,700 600 Climbing Boston Center
10:58AM 42.8592 -73.9639 327° Northwest 144 166 6,400 600 Climbing Boston Center
10:59AM 42.8942 -73.9903 331° Northwest 145 167 7,000 540 Climbing Boston Center
11:00AM 42.9292 -74.0167 331° Northwest 147 169 7,500 540 Climbing Boston Center
11:00AM 42.9622 -74.0431 330° Northwest 149 171 8,000 240 Climbing Boston Center
11:02AM 43.0056 -74.0783 329° Northwest 168 193 8,000  Level Boston Center
11:03AM 43.0467 -74.1106 330° Northwest 178 205 8,000  Level Boston Center
11:04AM 43.0858 -74.1458 327° Northwest 166 191 8,000  Level Boston Center
11:04AM 43.1250 -74.1725 334° Northwest 162 186 8,000 -60 Level Boston Center
11:06AM 43.1600 -74.1992 331° Northwest 167 192 7,900 -60 Descending Boston Center
11:07AM 43.2033 -74.2344 329° Northwest 167 192 7,900  Level Boston Center
11:08AM 43.2383 -74.2642 328° Northwest 167 192 7,900  Level Boston Center
11:09AM 43.2814 -74.2967 331° Northwest 162 186 7,900  Level Boston Center
11:10AM 43.3144 -74.3233 330° Northwest 162 186 7,900  Level Boston Center
11:11AM 43.3575 -74.3619 327° Northwest 162 186 7,900  Level Boston Center
11:12AM 43.3986 -74.3947 330° Northwest 167 192 7,900  Level Boston Center
11:13AM 43.4378 -74.4275 329° Northwest 167 192 7,900  Level Boston Center
11:14AM 43.4747 -74.4572 330° Northwest 167 192 7,900  Level Boston Center
11:15AM 43.5136 -74.4872 331° Northwest 167 192 7,900  Level Boston Center
11:16AM 43.5528 -74.5172 331° Northwest 167 192 7,900  Level Boston Center
11:17AM 43.5917 -74.5500 329° Northwest 167 192 7,900  Level Boston Center
11:18AM 43.6286 -74.5800 330° Northwest 167 192 7,900  Level Boston Center
11:19AM 43.6678 -74.6128 329° Northwest 167 192 7,900  Level Boston Center
11:20AM 43.7047 -74.6431 329° Northwest 167 192 7,900  Level Boston Center
11:21AM 43.7417 -74.6731 330° Northwest 161 185 7,900  Level Boston Center
11:22AM 43.7828 -74.7033 332° Northwest 161 185 7,900  Level Boston Center
11:23AM 43.8217 -74.7364 328° Northwest 161 185 7,900  Level Boston Center
11:24AM 43.8606 -74.7697 328° Northwest 161 185 7,900  Level Boston Center
11:25AM 43.8975 -74.8028 327° Northwest 161 185 7,900  Level Boston Center
11:26AM 43.9364 -74.8331 331° Northwest 161 185 7,900  Level Boston Center
11:27AM 43.9753 -74.8636 331° Northwest 161 185 7,900  Level Boston Center
11:28AM 44.0100 -74.8939 328° Northwest 161 185 7,900  Level Boston Center
11:29AM 44.0489 -74.9272 328° Northwest 161 185 8,000  Climbing Boston Center
11:30AM 44.0878 -74.9578 331° Northwest 161 185 8,000  Level Boston Center
11:31AM 44.1267 -74.9942 326° Northwest 161 185 8,000  Level Boston Center
11:32AM 44.1636 -75.0247 329° Northwest 161 185 8,000  Level Boston Center
11:33AM 44.2022 -75.0581 328° Northwest 166 191 8,000  Level Boston Center
11:34AM 44.2414 -75.0858 333° Northwest 166 191 8,000 -180 Level Boston Center
11:35AM 44.2822 -75.1225 327° Northwest 166 191 7,700 -600 Descending Boston Center
11:36AM 44.3269 -75.1622 328° Northwest 171 197 6,900 -780 Descending Boston Center
11:37AM 44.3722 -75.1933 334° Northwest 177 204 6,200 -720 Descending Boston Center